Time;durP1;ratioP1;P1;durP2;ratioP2;P2;SDS_P1;SDS_P2;PMS_P1;PMS_P2;Temp;Humidity;BMP_temperature;BMP_pressure;BME280_temperature;BME280_humidity;BME280_pressure;Samples;Min_cycle;Max_cycle;Signal;HPM_P1;HPM_P2
2022/06/21 00:00:23;;;;;;;6.28;2.17;;;;;;;17.28;57.45;98253.19;5097959;28;20051;-72
2022/06/21 00:02:56;;;;;;;11.35;4.03;;;;;;;17.30;57.70;98251.56;5115404;28;20044;-72
2022/06/21 00:05:34;;;;;;;9.52;2.78;;;;;;;17.30;57.78;98259.19;5110619;27;20055;-72
2022/06/21 00:08:10;;;;;;;6.88;2.20;;;;;;;17.26;57.68;98259.22;5135781;27;20597;-71
2022/06/21 00:10:37;;;;;;;6.40;2.10;;;;;;;17.21;58.00;98267.28;5118297;27;20088;-71
2022/06/21 00:13:12;;;;;;;6.85;2.17;;;;;;;17.21;58.07;98262.47;5134991;27;20061;-71
2022/06/21 00:15:41;;;;;;;6.57;2.45;;;;;;;17.16;58.31;98264.88;5135981;27;20137;-70
2022/06/21 00:18:17;;;;;;;4.05;2.35;;;;;;;17.16;58.27;98250.81;5135608;27;20051;-71
2022/06/21 00:20:45;;;;;;;9.15;2.30;;;;;;;17.17;58.30;98244.00;5135827;27;20382;-72
2022/06/21 00:23:21;;;;;;;5.57;2.33;;;;;;;17.21;57.99;98239.97;5135497;27;20059;-71
2022/06/21 00:25:48;;;;;;;6.18;2.47;;;;;;;17.21;58.00;98230.72;5136041;27;20055;-71
2022/06/21 00:28:17;;;;;;;9.95;2.55;;;;;;;17.27;57.94;98229.09;5135827;27;20043;-72
2022/06/21 00:30:46;;;;;;;7.25;2.72;;;;;;;17.27;57.97;98231.91;5135527;27;20040;-71
2022/06/21 00:33:15;;;;;;;4.18;2.00;;;;;;;17.32;57.76;98239.94;5116898;27;20051;-72
2022/06/21 00:35:45;;;;;;;5.53;2.17;;;;;;;17.33;57.76;98235.91;5135752;27;20039;-72
2022/06/21 00:38:15;;;;;;;5.82;2.30;;;;;;;17.27;58.44;98231.91;5135540;27;20054;-72
2022/06/21 00:40:43;;;;;;;7.47;2.60;;;;;;;17.19;58.86;98225.53;5122342;27;20043;-72
2022/06/21 00:43:18;;;;;;;5.43;2.30;;;;;;;17.21;59.35;98228.72;5114757;28;20146;-72
2022/06/21 00:45:48;;;;;;;6.55;2.28;;;;;;;17.18;59.68;98211.88;5115211;28;20057;-72
2022/06/21 00:48:31;;;;;;;;;;;;;;;17.05;59.98;98221.97;5114956;28;20089;-72
2022/06/21 00:51:08;;;;;;;5.75;3.08;;;;;;;17.09;60.24;98226.38;5114828;28;19946;-73
2022/06/21 00:53:43;;;;;;;5.93;2.38;;;;;;;17.09;60.32;98225.56;5115164;28;20141;-77
2022/06/21 00:56:19;;;;;;;10.23;2.20;;;;;;;17.05;60.71;98236.03;5114888;28;20414;-72
2022/06/21 00:58:46;;;;;;;6.22;2.58;;;;;;;16.96;61.15;98244.88;5114586;28;20411;-71
2022/06/21 01:01:29;;;;;;;8.77;2.70;;;;;;;16.98;61.79;98241.66;5114677;28;20418;-72
2022/06/21 01:04:14;;;;;;;9.73;2.47;;;;;;;16.94;61.92;98252.91;5114886;28;20058;-71
2022/06/21 01:06:45;;;;;;;9.10;2.25;;;;;;;16.92;62.24;98255.31;5114464;28;20063;-72
2022/06/21 01:09:15;;;;;;;11.93;2.50;;;;;;;16.91;62.20;98252.91;5114154;28;20044;-72
2022/06/21 01:11:48;;;;;;;8.85;2.60;;;;;;;16.88;62.61;98253.72;5115434;28;20047;-71
2022/06/21 01:14:20;;;;;;;17.30;2.67;;;;;;;16.90;62.51;98246.50;5134755;27;20047;-72
2022/06/21 01:16:48;;;;;;;16.95;2.63;;;;;;;16.91;62.75;98244.50;5134942;27;20047;-71
2022/06/21 01:19:38;;;;;;;9.82;2.42;;;;;;;16.92;63.08;98223.63;5134403;27;20047;-71
2022/06/21 01:22:22;;;;;;;11.73;3.38;;;;;;;16.90;63.11;98209.19;5134752;27;20516;-72
2022/06/21 01:25:21;;;;;;;8.98;2.80;;;;;;;16.91;63.29;98202.34;5115268;28;20082;-72
2022/06/21 01:27:51;;;;;;;8.47;2.07;;;;;;;16.88;63.29;98186.31;5099984;27;20058;-73
2022/06/21 01:30:18;;;;;;;8.18;2.47;;;;;;;16.91;63.82;98171.47;5134423;27;20121;-73
2022/06/21 01:32:45;;;;;;;5.68;2.20;;;;;;;16.94;63.90;98176.25;5134400;27;20401;-73
2022/06/21 01:35:19;;;;;;;5.68;2.20;;;;;;;16.94;63.80;98170.63;5134537;27;20055;-73
2022/06/21 01:37:47;;;;;;;10.57;2.13;;;;;;;16.86;64.29;98167.06;5134449;27;20142;-73
2022/06/21 01:40:26;;;;;;;7.10;2.40;;;;;;;16.85;64.46;98154.22;5125099;27;20066;-73
2022/06/21 01:42:58;;;;;;;11.93;2.37;;;;;;;16.82;64.69;98152.25;5113983;28;20410;-76
2022/06/21 01:45:30;;;;;;;6.00;2.60;;;;;;;16.83;64.67;98147.41;5113804;28;20055;-73
2022/06/21 01:48:06;;;;;;;20.10;2.78;;;;;;;16.83;64.54;98150.22;5124090;27;20051;-73
2022/06/21 01:50:36;;;;;;;5.13;2.30;;;;;;;16.84;64.54;98144.19;5134619;27;20130;-72
2022/06/21 01:53:07;;;;;;;9.55;2.80;;;;;;;16.89;64.39;98160.63;5133948;27;20076;-69
2022/06/21 01:55:45;;;;;;;;;;;;;;;16.82;64.26;98154.25;5134595;27;20405;-70
2022/06/21 01:58:18;;;;;;;9.43;2.40;;;;;;;16.89;64.56;98160.63;5133742;27;19927;-70
2022/06/21 02:00:52;;;;;;;8.43;2.97;;;;;;;16.94;64.29;98151.78;5133983;27;20508;-70
2022/06/21 02:03:26;;;;;;;11.43;2.75;;;;;;;16.96;64.63;98157.00;5134199;27;20047;-70
2022/06/21 02:05:56;;;;;;;8.40;3.70;;;;;;;16.98;64.63;98158.19;5133513;27;20398;-68
2022/06/21 02:08:52;;;;;;;9.55;2.63;;;;;;;17.00;64.71;98160.56;5132806;27;20146;-68
2022/06/21 02:11:25;;;;;;;13.60;3.35;;;;;;;16.99;64.90;98164.59;5122816;27;20066;-69
2022/06/21 02:16:46;;;;;;;4.32;2.30;;;;;;;17.00;65.05;98181.06;5133655;27;20057;-70
2022/06/21 02:19:24;;;;;;;13.68;3.50;;;;;;;16.98;65.60;98189.09;5120793;27;20134;-70
2022/06/21 02:21:52;;;;;;;5.68;3.05;;;;;;;16.97;65.48;98183.88;5113055;28;20055;-70
2022/06/21 02:24:23;;;;;;;7.30;2.83;;;;;;;16.99;65.50;98187.88;5113089;28;20044;-70
2022/06/21 02:26:51;;;;;;;7.45;2.90;;;;;;;17.00;65.66;98192.28;5113029;28;20079;-70
2022/06/21 02:29:18;;;;;;;7.95;2.55;;;;;;;16.99;65.77;98187.09;5113151;28;20045;-69
2022/06/21 02:31:46;;;;;;;9.52;3.25;;;;;;;16.99;66.07;98195.50;5112937;28;20047;-70
2022/06/21 02:34:23;;;;;;;7.80;2.75;;;;;;;17.01;66.08;98190.25;5113300;28;20047;-69
2022/06/21 02:36:57;;;;;;;7.38;2.80;;;;;;;17.00;65.86;98197.91;5114951;27;20546;-69
2022/06/21 02:39:28;;;;;;;7.50;2.92;;;;;;;16.99;66.46;98195.50;5135474;27;20497;-69
2022/06/21 02:42:02;;;;;;;10.50;2.83;;;;;;;17.00;66.23;98205.53;5117205;28;20414;-74
2022/06/21 02:44:53;;;;;;;8.50;2.50;;;;;;;16.95;66.52;98203.94;5117289;28;20071;-72
2022/06/21 02:47:35;;;;;;;15.05;3.67;;;;;;;16.97;66.50;98206.34;5116786;28;20055;-70
2022/06/21 02:50:15;;;;;;;8.00;2.83;;;;;;;16.97;66.91;98200.72;5117098;28;20044;-73
2022/06/21 02:52:42;;;;;;;11.68;2.97;;;;;;;16.97;66.84;98195.09;5098216;28;20068;-70
2022/06/21 02:55:44;;;;;;;13.52;2.70;;;;;;;17.00;66.63;98199.91;5116933;28;20150;-70
2022/06/21 02:58:22;;;;;;;6.30;2.88;;;;;;;16.97;66.66;98197.91;5116487;28;20051;-70
2022/06/21 03:00:52;;;;;;;7.93;3.22;;;;;;;16.96;66.60;98201.94;5116685;28;20517;-69
2022/06/21 03:03:23;;;;;;;13.48;3.28;;;;;;;16.97;66.66;98193.09;5116820;28;20047;-70
2022/06/21 03:05:56;;;;;;;7.32;3.10;;;;;;;16.97;66.79;98190.31;5098570;28;20047;-69
2022/06/21 03:08:24;;;;;;;11.80;3.67;;;;;;;16.97;67.00;98198.72;5116233;28;20066;-68
2022/06/21 03:10:52;;;;;;;11.18;3.83;;;;;;;16.96;67.01;98196.31;5116602;28;20047;-69
2022/06/21 03:13:27;;;;;;;6.03;2.95;;;;;;;16.96;67.38;98187.91;5116845;28;20059;-69
2022/06/21 03:16:00;;;;;;;11.02;3.45;;;;;;;16.95;67.14;98186.28;5116773;28;20047;-69
2022/06/21 03:18:36;;;;;;;10.68;3.83;;;;;;;16.94;67.27;98190.31;5117698;27;20044;-69
2022/06/21 03:21:05;;;;;;;12.82;3.22;;;;;;;16.92;67.58;98184.28;5136792;27;20138;-69
2022/06/21 03:23:33;;;;;;;8.15;3.13;;;;;;;16.92;67.55;98173.84;5136918;27;20043;-70
2022/06/21 03:26:03;;;;;;;11.85;3.20;;;;;;;16.98;67.96;98179.84;5136576;27;20051;-70
2022/06/21 03:28:34;;;;;;;7.80;4.00;;;;;;;16.95;67.89;98181.47;5137161;27;20073;-69
2022/06/21 03:31:09;;;;;;;11.18;3.55;;;;;;;16.93;67.73;98167.03;5136738;27;20138;-69
2022/06/21 03:33:41;;;;;;;8.13;3.83;;;;;;;16.91;67.89;98163.03;5136821;27;20052;-69
2022/06/21 03:36:13;;;;;;;13.57;3.47;;;;;;;16.92;67.88;98156.19;5136396;27;20083;-69
2022/06/21 03:38:47;;;;;;;8.40;3.47;;;;;;;16.92;67.84;98159.81;5136497;27;20468;-69
2022/06/21 03:44:14;;;;;;;8.48;3.53;;;;;;;16.91;67.96;98163.84;5116118;28;20498;-69
2022/06/21 03:46:52;;;;;;;5.95;3.53;;;;;;;16.89;67.75;98157.81;5115688;28;20392;-69
2022/06/21 03:50:10;;;;;;;7.70;2.90;;;;;;;16.88;67.41;98161.03;5114462;28;20058;-70
2022/06/21 03:53:00;;;;;;;15.60;3.05;;;;;;;16.91;67.36;98157.41;5110767;28;20055;-70
2022/06/21 03:56:01;;;;;;;7.38;3.50;;;;;;;16.95;67.60;98155.38;5115695;28;20067;-69
2022/06/21 03:58:37;;;;;;;12.27;3.92;;;;;;;17.01;67.74;98153.75;5115692;28;20578;-69
2022/06/21 04:01:23;;;;;;;10.55;3.38;;;;;;;17.10;67.73;98154.09;5115616;28;20046;-69
2022/06/21 04:04:21;;;;;;;9.75;3.85;;;;;;;17.15;67.73;98145.25;5115579;28;20047;-70
2022/06/21 04:07:23;;;;;;;7.20;3.80;;;;;;;17.22;67.79;98148.00;5108767;28;20051;-68
2022/06/21 04:09:55;;;;;;;10.25;3.45;;;;;;;17.33;67.37;98145.94;5089053;27;20055;-69
2022/06/21 04:12:24;;;;;;;8.98;3.80;;;;;;;17.42;67.21;98135.03;5135998;27;20051;-68
2022/06/21 04:14:58;;;;;;;7.13;3.60;;;;;;;17.53;66.71;98130.19;5136043;27;20059;-70
2022/06/21 04:17:47;;;;;;;9.35;3.97;;;;;;;17.67;66.28;98127.25;5135560;27;20043;-69
2022/06/21 04:20:43;;;;;;;12.85;3.83;;;;;;;17.76;65.44;98127.56;5135937;27;20134;-70
2022/06/21 04:23:14;;;;;;;9.05;3.60;;;;;;;17.71;64.98;98125.22;5135821;27;20047;-70
2022/06/21 04:26:02;;;;;;;9.38;3.58;;;;;;;17.50;64.52;98128.19;5135496;27;20061;-70
2022/06/21 04:28:55;;;;;;;13.75;3.88;;;;;;;17.30;64.34;98124.28;5135894;27;20043;-70
2022/06/21 04:31:25;;;;;;;;;;;;;;;17.10;64.91;98131.63;5136111;27;20409;-70
2022/06/21 04:33:56;;;;;;;;;;;;;;;17.11;64.76;98122.00;5136163;27;20552;-70
2022/06/21 04:36:32;;;;;;;9.13;3.88;;;;;;;17.36;64.09;98122.63;5135353;27;19934;-70
2022/06/21 04:39:11;;;;;;;7.65;3.45;;;;;;;17.54;63.50;98106.47;5135781;27;20057;-70
2022/06/21 04:41:47;;;;;;;10.05;4.20;;;;;;;17.53;63.18;98099.25;5114901;28;20119;-70
2022/06/21 04:44:45;;;;;;;11.77;4.22;;;;;;;17.50;62.74;98103.66;5114829;28;20122;-70
2022/06/21 04:47:23;;;;;;;13.80;3.95;;;;;;;17.48;62.83;98091.25;5113034;28;20112;-70
2022/06/21 04:50:37;;;;;;;17.52;4.75;;;;;;;17.45;62.94;98094.88;5114811;28;20498;-70
2022/06/21 04:53:27;;;;;;;10.63;4.22;;;;;;;17.49;62.93;98085.22;5086633;28;20063;-70
2022/06/21 04:56:12;;;;;;;13.27;5.40;;;;;;;17.62;62.76;98085.53;5104619;28;20062;-68
2022/06/21 04:58:39;;;;;;;11.60;4.40;;;;;;;17.66;62.71;98087.09;5114529;28;20048;-69
2022/06/21 05:03:52;;;;;;;17.52;4.30;;;;;;;17.81;62.06;98099.81;5114424;28;20082;-69
2022/06/21 05:06:19;;;;;;;8.13;4.63;;;;;;;17.85;61.96;98109.03;5117081;27;20051;-69
2022/06/21 05:08:48;;;;;;;9.23;3.78;;;;;;;18.04;61.55;98107.66;5134916;27;20557;-69
2022/06/21 05:11:15;;;;;;;12.48;4.18;;;;;;;18.06;61.23;98106.00;5134851;27;20050;-69
2022/06/21 05:13:50;;;;;;;8.93;3.55;;;;;;;18.07;61.11;98098.38;5134802;27;20159;-69
2022/06/21 05:16:28;;;;;;;9.75;4.20;;;;;;;18.34;60.34;98093.66;5134475;27;20055;-69
2022/06/21 05:19:03;;;;;;;9.35;3.97;;;;;;;18.58;59.77;98098.25;5114111;28;20165;-69
2022/06/21 05:21:38;;;;;;;9.98;4.03;;;;;;;18.76;59.39;98095.19;5113795;28;20485;-69
2022/06/21 05:24:06;;;;;;;8.25;4.00;;;;;;;18.80;59.34;98099.56;5114409;28;20120;-69
2022/06/21 05:26:54;;;;;;;6.57;3.85;;;;;;;18.74;59.04;98092.78;5113961;28;20059;-69
2022/06/21 05:29:43;;;;;;;9.68;3.72;;;;;;;18.51;59.24;98103.97;5114058;28;20043;-69
2022/06/21 05:32:17;;;;;;;10.07;3.78;;;;;;;18.59;59.27;98099.81;5113838;28;20138;-69
2022/06/21 05:34:52;;;;;;;7.25;4.18;;;;;;;18.68;59.08;98108.56;5113915;28;20044;-69
2022/06/21 05:37:36;;;;;;;8.80;3.95;;;;;;;18.68;59.22;98108.56;5113715;28;20561;-72
2022/06/21 05:40:21;;;;;;;13.15;4.40;;;;;;;18.72;59.03;98095.25;5113378;28;20486;-73
2022/06/21 05:42:48;;;;;;;9.60;4.55;;;;;;;18.64;58.95;98107.81;5095831;28;20050;-72
2022/06/21 05:45:16;;;;;;;13.63;4.40;;;;;;;18.55;59.12;98099.06;5113881;28;20388;-73
2022/06/21 05:47:51;;;;;;;12.52;4.15;;;;;;;18.58;58.85;98098.25;5113343;28;20445;-72
2022/06/21 05:50:24;;;;;;;12.98;4.40;;;;;;;18.50;58.79;98096.72;5094959;28;20050;-73
2022/06/21 05:52:55;;;;;;;8.23;4.15;;;;;;;18.52;59.13;98094.28;5113300;28;20055;-73
2022/06/21 05:55:25;;;;;;;7.70;4.40;;;;;;;18.65;58.74;98092.50;5113743;28;20490;-73
2022/06/21 05:57:57;;;;;;;10.60;4.72;;;;;;;18.76;58.79;98092.38;5113287;28;20141;-74
2022/06/21 06:00:33;;;;;;;10.55;4.85;;;;;;;18.78;58.52;98096.38;5113380;28;20043;-74
2022/06/21 06:03:07;;;;;;;15.48;4.70;;;;;;;18.94;58.40;98076.84;5113291;28;20044;-73
2022/06/21 06:05:35;;;;;;;10.55;4.78;;;;;;;19.19;57.44;98082.91;5113403;28;20047;-73
2022/06/21 06:08:10;;;;;;;8.73;4.32;;;;;;;19.38;57.31;98078.66;5112723;28;20061;-73
2022/06/21 06:10:40;;;;;;;14.25;4.82;;;;;;;19.31;57.26;98073.94;5112857;28;20047;-72
2022/06/21 06:13:19;;;;;;;9.77;4.40;;;;;;;19.24;57.23;98081.63;5112925;28;20082;-73
2022/06/21 06:15:53;;;;;;;10.70;5.13;;;;;;;19.12;57.51;98085.84;5113635;28;20055;-74
2022/06/21 06:18:27;;;;;;;13.10;5.25;;;;;;;18.85;57.97;98098.28;5113186;28;20130;-72
2022/06/21 06:21:29;;;;;;;10.45;5.50;;;;;;;18.48;59.02;98087.09;5113347;28;20047;-69
2022/06/21 06:24:11;;;;;;;13.65;5.43;;;;;;;18.40;59.23;98094.84;5113246;28;20063;-69
2022/06/21 06:26:41;;;;;;;8.35;5.30;;;;;;;18.51;59.02;98092.69;5112965;28;20410;-68
2022/06/21 06:29:43;;;;;;;11.85;5.63;;;;;;;18.60;59.17;98093.00;5112721;28;20047;-69
2022/06/21 06:32:44;;;;;;;17.08;7.05;;;;;;;18.65;59.38;98097.38;5113086;28;20093;-69
2022/06/21 06:35:20;;;;;;;17.90;6.55;;;;;;;18.57;59.28;98102.28;5113040;28;20534;-71
2022/06/21 06:37:47;;;;;;;21.15;10.40;;;;;;;18.49;59.56;98097.94;5112823;28;20498;-69
2022/06/21 06:40:30;;;;;;;51.60;19.58;;;;;;;18.43;59.84;98108.06;5112999;28;20051;-69
2022/06/21 06:43:06;;;;;;;16.05;6.85;;;;;;;18.34;59.84;98096.47;5112653;28;20134;-73
2022/06/21 06:45:36;;;;;;;12.18;6.40;;;;;;;18.29;60.01;98091.28;5113033;28;20061;-73
2022/06/21 06:48:12;;;;;;;17.48;7.03;;;;;;;18.30;60.12;98095.72;5112698;28;20055;-73
2022/06/21 06:50:46;;;;;;;13.90;6.30;;;;;;;18.29;60.28;98108.19;5112973;28;20466;-72
2022/06/21 06:53:29;;;;;;;13.75;6.22;;;;;;;18.22;60.32;98097.00;5112618;28;20052;-73
2022/06/21 06:56:04;;;;;;;7.75;5.00;;;;;;;18.10;60.64;98106.78;5133557;28;20489;-73
2022/06/21 06:58:43;;;;;;;13.60;6.32;;;;;;;18.01;60.90;98109.28;5133334;28;20146;-71
2022/06/21 07:01:15;;;;;;;10.10;5.15;;;;;;;18.05;60.98;98104.41;5114985;28;20456;-69
2022/06/21 07:03:48;;;;;;;273.27;98.20;;;;;;;18.13;61.09;98100.31;5133281;28;20130;-70
2022/06/21 07:06:41;;;;;;;18.52;8.57;;;;;;;18.26;60.86;98103.38;5130976;28;20049;-70
2022/06/21 07:09:23;;;;;;;13.32;6.07;;;;;;;18.23;60.88;98092.97;5112435;28;20078;-70
2022/06/21 07:12:02;;;;;;;12.95;5.35;;;;;;;18.28;60.92;98095.34;5112528;28;20073;-72
2022/06/21 07:14:29;;;;;;;9.45;5.65;;;;;;;18.27;60.82;98093.75;5112589;28;20048;-74
2022/06/21 07:17:17;;;;;;;13.65;5.32;;;;;;;18.33;60.52;98085.63;5112553;28;20048;-72
2022/06/21 07:19:45;;;;;;;11.95;4.72;;;;;;;18.38;60.19;98090.84;5094945;28;20048;-70
2022/06/21 07:22:25;;;;;;;7.72;4.60;;;;;;;18.42;60.32;98089.59;5112804;28;20061;-70
2022/06/21 07:25:14;;;;;;;11.32;4.75;;;;;;;18.42;60.21;98089.59;5116345;28;20058;-70
2022/06/21 07:27:47;;;;;;;11.48;4.70;;;;;;;18.42;60.31;98074.69;5132450;27;20050;-72
2022/06/21 07:30:21;;;;;;;11.95;5.13;;;;;;;18.49;60.16;98075.41;5136827;27;20401;-73
2022/06/21 07:32:58;;;;;;;10.65;4.82;;;;;;;18.59;59.72;98082.94;5136569;27;20096;-69
2022/06/21 07:35:36;;;;;;;12.35;4.78;;;;;;;18.59;59.79;98077.28;5136427;27;20477;-69
2022/06/21 07:38:10;;;;;;;9.07;5.47;;;;;;;18.54;59.75;98086.22;5136373;27;20062;-74
2022/06/21 07:40:41;;;;;;;10.55;5.43;;;;;;;18.49;59.87;98081.03;5136582;27;20057;-71
2022/06/21 07:43:14;;;;;;;8.93;3.90;;;;;;;18.39;60.07;98078.34;5136539;27;20047;-73
2022/06/21 07:45:59;;;;;;;7.57;4.20;;;;;;;18.30;60.19;98067.56;5136514;27;20601;-67
2022/06/21 07:48:36;;;;;;;14.23;4.85;;;;;;;18.25;60.57;98062.38;5135864;27;20051;-68
2022/06/21 07:51:26;;;;;;;9.93;4.15;;;;;;;18.22;60.36;98068.84;5136275;27;20066;-68
2022/06/21 07:54:21;;;;;;;11.02;4.25;;;;;;;18.30;60.14;98066.75;5128972;27;20133;-72
2022/06/21 07:57:05;;;;;;;9.10;4.57;;;;;;;18.33;60.24;98068.75;5115771;28;20052;-72
2022/06/21 07:59:44;;;;;;;17.58;4.50;;;;;;;18.36;60.21;98068.72;5115776;28;20048;-72
2022/06/21 08:08:37;;;;;;;7.68;4.85;;;;;;;18.24;61.91;98083.31;5115099;28;20158;-70
2022/06/21 08:11:12;;;;;;;11.35;5.25;;;;;;;18.15;62.20;98066.13;5115448;28;20043;-72
2022/06/21 08:13:40;;;;;;;9.25;5.30;;;;;;;18.09;62.52;98065.78;5115479;28;20135;-70
2022/06/21 08:16:10;;;;;;;9.57;5.72;;;;;;;18.09;62.94;98067.81;5115680;28;20138;-69
2022/06/21 08:18:59;;;;;;;13.23;8.07;;;;;;;18.07;63.31;98073.03;5115604;28;20051;-70
2022/06/21 08:21:41;;;;;;;10.63;5.32;;;;;;;17.94;63.84;98072.75;5115107;28;20047;-70
2022/06/21 08:24:18;;;;;;;9.23;5.72;;;;;;;17.86;64.28;98078.88;5115087;28;20058;-70
2022/06/21 08:26:52;;;;;;;12.43;6.22;;;;;;;17.83;64.57;98068.47;5114281;28;20457;-70
2022/06/21 08:29:27;;;;;;;11.55;6.70;;;;;;;17.82;64.93;98078.09;5097046;28;20380;-70
2022/06/21 08:32:01;;;;;;;11.48;5.53;;;;;;;17.78;65.04;98080.16;5115241;28;20498;-76
2022/06/21 08:34:40;;;;;;;14.23;5.88;;;;;;;17.71;65.52;98066.94;5134398;27;20413;-77
2022/06/21 08:37:13;;;;;;;15.52;5.97;;;;;;;17.71;65.48;98063.34;5135207;27;20051;-77
2022/06/21 08:40:24;;;;;;;15.68;5.88;;;;;;;17.64;65.41;98069.00;5135401;27;20055;-75
2022/06/21 08:43:09;;;;;;;8.93;5.50;;;;;;;17.62;65.57;98068.66;5101909;27;20134;-76
2022/06/21 08:46:13;;;;;;;8.57;5.40;;;;;;;17.59;65.50;98072.28;5114890;28;20138;-77
2022/06/21 08:48:46;;;;;;;15.88;6.15;;;;;;;17.54;65.49;98069.91;5115672;28;20051;-76
2022/06/21 08:52:01;;;;;;;12.30;5.72;;;;;;;17.48;65.29;98074.38;5115057;28;20039;-76
2022/06/21 08:54:37;;;;;;;13.23;6.03;;;;;;;17.48;65.67;98080.00;5113608;27;20072;-76
2022/06/21 08:57:16;;;;;;;15.27;6.30;;;;;;;17.50;65.72;98066.34;5135302;27;20093;-76
2022/06/21 09:00:15;;;;;;;23.23;10.77;;;;;;;17.52;65.76;98058.28;5135507;27;20410;-76
2022/06/21 09:03:19;;;;;;;25.38;6.55;;;;;;;17.49;65.73;98064.72;5135255;27;20047;-76
2022/06/21 09:06:04;;;;;;;12.70;6.25;;;;;;;17.49;65.88;98061.91;5134512;27;20054;-76
2022/06/21 09:09:01;;;;;;;14.40;6.10;;;;;;;17.58;65.97;98065.06;5114141;28;20067;-76
2022/06/21 09:12:09;;;;;;;11.40;5.97;;;;;;;17.58;66.21;98062.22;5114748;28;20138;-75
2022/06/21 09:14:58;;;;;;;11.73;6.10;;;;;;;17.54;66.51;98072.72;5093091;28;20054;-76
2022/06/21 09:17:27;;;;;;;11.68;5.75;;;;;;;17.53;66.79;98082.38;5113994;28;20140;-75
2022/06/21 09:20:28;;;;;;;10.10;6.10;;;;;;;17.52;66.54;98072.31;5113940;28;20054;-76
2022/06/21 09:23:35;;;;;;;10.82;5.53;;;;;;;17.49;66.81;98064.72;5114195;28;20058;-75
2022/06/21 09:26:16;;;;;;;12.75;5.63;;;;;;;17.51;66.90;98073.56;5113906;28;20418;-75
2022/06/21 09:28:58;;;;;;;9.18;4.93;;;;;;;17.49;67.22;98075.97;5113689;28;20051;-75
2022/06/21 09:31:30;;;;;;;13.18;5.22;;;;;;;17.46;67.24;98073.97;5113687;28;20446;-75
2022/06/21 09:34:06;;;;;;;10.82;5.30;;;;;;;17.43;67.26;98080.41;5114291;28;20111;-75
2022/06/21 09:36:59;;;;;;;15.05;5.78;;;;;;;17.45;67.13;98064.78;5113562;28;20043;-76
2022/06/21 09:39:34;;;;;;;11.63;5.22;;;;;;;17.50;67.18;98067.13;5113773;28;20058;-75
2022/06/21 09:42:17;;;;;;;9.60;5.40;;;;;;;17.55;67.28;98057.44;5113208;28;20138;-75
2022/06/21 09:45:17;;;;;;;17.30;6.22;;;;;;;17.66;66.86;98058.16;5128927;27;20050;-75
2022/06/21 09:47:56;;;;;;;18.63;5.68;;;;;;;17.71;66.86;98058.50;5133393;27;20054;-75
2022/06/21 09:50:42;;;;;;;14.60;6.28;;;;;;;17.68;66.51;98070.59;5134164;27;20085;-75
2022/06/21 09:54:08;;;;;;;8.75;5.50;;;;;;;17.64;66.25;98067.00;5134175;27;20043;-76
2022/06/21 09:56:54;;;;;;;17.42;5.72;;;;;;;17.70;66.16;98070.16;5073715;27;20073;-76
2022/06/21 09:59:37;;;;;;;11.70;5.15;;;;;;;17.76;65.98;98057.25;5133893;27;20051;-76
2022/06/21 10:02:19;;;;;;;12.45;5.43;;;;;;;17.80;65.94;98069.28;5133395;27;20082;-75
2022/06/21 10:04:51;;;;;;;14.52;6.15;;;;;;;17.76;66.27;98062.88;5133641;27;20059;-75
2022/06/21 10:07:45;;;;;;;11.60;5.50;;;;;;;17.76;66.31;98057.25;5121830;27;20139;-73
2022/06/21 10:10:40;;;;;;;12.57;5.50;;;;;;;17.89;65.95;98061.16;5066874;28;20529;-74
2022/06/21 10:13:34;;;;;;;8.75;5.38;;;;;;;18.02;65.91;98065.03;5113098;28;20040;-75
2022/06/21 10:16:04;;;;;;;9.48;5.13;;;;;;;18.07;66.04;98067.41;5112870;28;20133;-76
2022/06/21 10:19:05;;;;;;;11.43;5.43;;;;;;;18.10;66.07;98072.19;5113300;28;20044;-76
2022/06/21 10:21:35;;;;;;;10.30;5.40;;;;;;;18.19;65.66;98070.50;5112821;28;20472;-75
2022/06/21 10:24:39;;;;;;;11.27;4.97;;;;;;;18.29;65.29;98073.63;5125690;27;20417;-76
2022/06/21 10:27:36;;;;;;;9.85;4.95;;;;;;;18.34;65.08;98071.13;5133504;27;20050;-77
2022/06/21 10:30:38;;;;;;;10.90;5.43;;;;;;;18.40;64.64;98063.06;5133338;28;20051;-76
2022/06/21 10:33:33;;;;;;;12.48;4.68;;;;;;;18.48;64.02;98070.19;5114939;28;20150;-75
2022/06/21 10:36:31;;;;;;;7.75;4.38;;;;;;;18.49;63.66;98075.41;5133231;28;20413;-77
2022/06/21 10:39:19;;;;;;;14.68;4.93;;;;;;;18.47;63.85;98066.56;5133380;28;20051;-76
2022/06/21 10:45:33;;;;;;;6.68;4.10;;;;;;;18.35;63.53;98067.09;5115244;28;20577;-76
2022/06/21 10:48:25;;;;;;;6.75;3.75;;;;;;;18.30;63.53;98059.13;5112524;28;20070;-76
2022/06/21 10:51:02;;;;;;;7.05;3.90;;;;;;;18.19;63.69;98053.63;5113092;28;20058;-76
2022/06/21 10:53:58;;;;;;;7.05;3.83;;;;;;;18.22;63.44;98046.34;5112798;28;20051;-77
2022/06/21 11:02:56;;;;;;;9.93;5.70;;;;;;;18.54;62.44;98031.91;5116471;28;20494;-76
2022/06/21 11:05:26;;;;;;;12.05;5.55;;;;;;;18.58;61.96;98025.00;5116710;28;20067;-77
2022/06/21 11:08:33;;;;;;;11.20;5.68;;;;;;;18.61;61.95;98026.16;5116360;28;20051;-77
2022/06/21 11:11:33;;;;;;;13.63;5.95;;;;;;;18.59;61.94;98031.44;5121990;27;20509;-74
2022/06/21 11:14:06;;;;;;;;;;;;;;;18.42;62.19;98032.47;5133824;27;20047;-71
2022/06/21 11:17:12;;;;;;;10.43;5.13;;;;;;;18.46;61.88;98034.00;5137519;27;19999;-72
2022/06/21 11:19:51;;;;;;;10.90;4.82;;;;;;;18.47;61.60;98038.41;5131237;27;20491;-72
2022/06/21 11:22:31;;;;;;;;;;;;;;;18.38;62.28;98038.13;5131831;27;20054;-75
2022/06/21 11:25:15;;;;;;;12.40;5.25;;;;;;;18.48;61.63;98044.84;5119135;27;19934;-75
2022/06/21 11:27:56;;;;;;;11.82;5.28;;;;;;;18.47;62.10;98041.22;5125860;27;20043;-74
2022/06/21 11:30:29;;;;;;;7.70;4.45;;;;;;;18.42;62.39;98033.28;5120468;27;20062;-75
2022/06/21 11:33:29;;;;;;;17.25;4.90;;;;;;;18.44;62.34;98044.88;5124081;27;20052;-71
2022/06/21 11:36:05;;;;;;;19.85;7.30;;;;;;;18.42;62.84;98040.91;5107633;27;20077;-72
2022/06/21 11:39:02;;;;;;;9.40;4.78;;;;;;;18.46;62.40;98045.28;5108650;27;20085;-73
2022/06/21 11:42:06;;;;;;;10.00;4.10;;;;;;;18.55;61.94;98047.56;5127787;27;20043;-71
2022/06/21 11:44:54;;;;;;;8.00;4.13;;;;;;;18.59;61.11;98049.13;5122245;27;20043;-77
2022/06/21 11:47:45;;;;;;;7.88;4.28;;;;;;;18.67;60.83;98044.19;5117435;27;20462;-74
2022/06/21 11:50:30;;;;;;;8.45;3.72;;;;;;;18.63;60.96;98044.25;5136243;27;20535;-70
2022/06/21 11:53:22;;;;;;;6.75;3.70;;;;;;;18.66;61.14;98043.41;5120595;27;20040;-70
2022/06/21 11:56:18;;;;;;;6.47;3.47;;;;;;;18.67;60.99;98038.56;5129058;27;20047;-72
2022/06/21 11:59:04;;;;;;;14.65;7.13;;;;;;;18.68;60.06;98035.31;5125417;27;20039;-70
2022/06/21 12:01:46;;;;;;;10.20;4.63;;;;;;;18.73;60.11;98034.88;5133402;27;20047;-76
2022/06/21 12:04:25;;;;;;;7.60;3.63;;;;;;;18.84;60.03;98026.25;5125902;27;20126;-75
2022/06/21 12:07:05;;;;;;;14.65;4.03;;;;;;;18.93;59.60;98020.91;5118314;27;20133;-77
2022/06/21 12:09:32;;;;;;;8.27;3.85;;;;;;;19.01;59.32;98023.19;5132366;27;20045;-72
2022/06/21 12:12:19;;;;;;;7.80;3.50;;;;;;;19.04;58.85;98019.50;5132035;27;20035;-72
2022/06/21 12:15:26;;;;;;;8.30;3.88;;;;;;;19.08;58.34;98013.84;5130511;27;20100;-72
2022/06/21 12:18:05;;;;;;;8.85;3.63;;;;;;;19.06;57.97;98014.25;5129210;27;20046;-72
2022/06/21 12:21:00;;;;;;;13.13;4.22;;;;;;;19.04;57.82;98013.88;5124247;27;20059;-73
2022/06/21 12:23:30;;;;;;;8.45;3.78;;;;;;;19.03;57.99;98012.28;5110500;27;20049;-71
2022/06/21 12:25:57;;;;;;;;;;;;;;;18.95;58.17;98012.84;5130638;27;20134;-72
2022/06/21 12:28:28;;;;;;;9.77;3.58;;;;;;;19.02;56.96;97993.78;5130184;27;19980;-75
2022/06/21 12:31:03;;;;;;;9.07;4.10;;;;;;;19.12;56.10;98001.28;5128333;27;20042;-70
2022/06/21 12:33:36;;;;;;;8.10;4.03;;;;;;;19.17;56.01;97992.34;5115048;28;20516;-72
2022/06/21 12:36:09;;;;;;;8.00;4.10;;;;;;;19.23;55.94;97996.28;5115247;28;20179;-68
2022/06/21 12:38:42;;;;;;;11.93;4.13;;;;;;;19.25;55.63;98005.13;5134234;27;20023;-73
2022/06/21 12:41:27;;;;;;;9.65;4.20;;;;;;;19.28;55.92;98007.13;5121285;27;20048;-72
2022/06/21 12:43:54;;;;;;;7.30;4.47;;;;;;;19.24;56.19;98000.69;5124082;27;20509;-71
2022/06/21 12:46:48;;;;;;;8.77;4.15;;;;;;;19.13;55.66;98000.03;5127301;27;20039;-72
2022/06/21 12:49:35;;;;;;;14.13;5.07;;;;;;;19.05;55.62;97998.56;5123278;27;20050;-72
2022/06/21 12:52:17;;;;;;;12.88;4.90;;;;;;;19.11;55.47;97996.06;5120165;27;20039;-72
2022/06/21 12:55:24;;;;;;;11.85;5.20;;;;;;;19.15;54.92;97985.53;5132235;27;20138;-72